Time;durP1;ratioP1;P1;durP2;ratioP2;P2;SDS_P1;SDS_P2;PMS_P1;PMS_P2;Temp;Humidity;BMP_temperature;BMP_pressure;BME280_temperature;BME280_humidity;BME280_pressure;Samples;Min_cycle;Max_cycle;Signal;HPM_P1;HPM_P2
2022/06/17 00:01:36;;;;;;;6.87;4.80;;;;;;;;;;5024618;28;20462;-86
2022/06/17 00:04:02;;;;;;;5.90;4.67;;;;;;;;;;5008781;28;20426;-86
2022/06/17 00:06:32;;;;;;;5.10;4.60;;;;;;;;;;5030181;28;20434;-86
2022/06/17 00:08:58;;;;;;;7.00;4.50;;;;;;;;;;5027173;28;20407;-87
2022/06/17 00:11:28;;;;;;;5.60;4.17;;;;;;;;;;5008346;28;20431;-86
2022/06/17 00:13:54;;;;;;;6.87;4.07;;;;;;;;;;5025891;28;20489;-86
2022/06/17 00:16:22;;;;;;;6.37;4.50;;;;;;;;;;5026198;28;20507;-86
2022/06/17 00:18:48;;;;;;;5.50;4.13;;;;;;;;;;5026396;28;20399;-86
2022/06/17 00:21:29;;;;;;;5.13;3.80;;;;;;;;;;5008403;28;20411;-87
2022/06/17 00:23:55;;;;;;;4.73;3.87;;;;;;;;;;5008561;28;20433;-87
2022/06/17 00:26:21;;;;;;;5.73;3.97;;;;;;;;;;5024482;28;20465;-86
2022/06/17 00:28:48;;;;;;;9.90;4.43;;;;;;;;;;5007406;28;20461;-87
2022/06/17 00:31:14;;;;;;;5.70;4.50;;;;;;;;;;5024521;28;20407;-85
2022/06/17 00:33:40;;;;;;;5.27;4.67;;;;;;;;;;5024532;28;20467;-86
2022/06/17 00:36:07;;;;;;;5.13;4.10;;;;;;;;;;5024747;28;20510;-87
2022/06/17 00:38:36;;;;;;;13.37;5.10;;;;;;;;;;5025361;28;20402;-88
2022/06/17 00:41:16;;;;;;;6.63;4.70;;;;;;;;;;5007171;28;20418;-86
2022/06/17 00:43:44;;;;;;;6.43;4.40;;;;;;;;;;5025457;28;20474;-87
2022/06/17 00:46:29;;;;;;;5.23;4.60;;;;;;;;;;5028942;28;20409;-87
2022/06/17 00:49:11;;;;;;;5.47;4.10;;;;;;;;;;5038119;28;20395;-85
2022/06/17 00:51:46;;;;;;;5.20;4.70;;;;;;;;;;5031292;28;20510;-87
2022/06/17 00:54:20;;;;;;;8.23;5.70;;;;;;;;;;5009173;28;20462;-86
2022/06/17 00:56:46;;;;;;;4.77;4.27;;;;;;;;;;5026692;28;20392;-86
2022/06/17 00:59:13;;;;;;;4.93;4.43;;;;;;;;;;5027158;28;20399;-86
2022/06/17 01:01:58;;;;;;;6.20;4.50;;;;;;;;;;5007024;28;20520;-86
2022/06/17 01:04:25;;;;;;;5.73;4.83;;;;;;;;;;5004877;28;20411;-86
2022/06/17 01:06:57;;;;;;;5.10;4.10;;;;;;;;;;5005410;28;20399;-86
2022/06/17 01:12:12;;;;;;;7.13;4.90;;;;;;;;;;5027527;28;20430;-86
2022/06/17 01:14:39;;;;;;;5.50;4.37;;;;;;;;;;4994492;28;20433;-87
2022/06/17 01:17:06;;;;;;;8.00;5.10;;;;;;;;;;4987932;28;20416;-86
2022/06/17 01:19:37;;;;;;;6.50;4.30;;;;;;;;;;5005176;28;20409;-87
2022/06/17 01:22:18;;;;;;;6.47;4.63;;;;;;;;;;5005574;28;20428;-87
2022/06/17 01:24:45;;;;;;;4.50;4.10;;;;;;;;;;5004939;28;20404;-86
2022/06/17 01:27:12;;;;;;;7.60;4.77;;;;;;;;;;5009271;28;20405;-87
2022/06/17 01:29:39;;;;;;;5.63;4.60;;;;;;;;;;5005822;28;20431;-86
2022/06/17 01:32:07;;;;;;;6.40;5.33;;;;;;;;;;5005663;28;20454;-87
2022/06/17 01:34:33;;;;;;;5.13;4.00;;;;;;;;;;5004589;28;20499;-86
2022/06/17 01:37:00;;;;;;;6.70;5.30;;;;;;;;;;5004588;28;20408;-88
2022/06/17 01:39:26;;;;;;;6.70;4.53;;;;;;;;;;5003815;28;20425;-86
2022/06/17 01:41:53;;;;;;;9.00;5.07;;;;;;;;;;5004458;28;20475;-85
2022/06/17 01:44:25;;;;;;;5.17;4.17;;;;;;;;;;5012066;28;20456;-88
2022/06/17 01:46:52;;;;;;;5.40;3.80;;;;;;;;;;5003193;28;20400;-86
2022/06/17 01:49:20;;;;;;;7.90;4.40;;;;;;;;;;5003276;28;20423;-85
2022/06/17 01:51:53;;;;;;;6.73;4.10;;;;;;;;;;5003136;28;20416;-88
2022/06/17 01:54:21;;;;;;;4.67;3.73;;;;;;;;;;5002659;28;20471;-86
2022/06/17 01:56:50;;;;;;;7.70;4.80;;;;;;;;;;5002795;28;20415;-89
2022/06/17 01:59:22;;;;;;;5.47;4.37;;;;;;;;;;5002877;28;20765;-85
2022/06/17 02:01:50;;;;;;;5.07;4.53;;;;;;;;;;4981550;28;20428;-87
2022/06/17 02:04:19;;;;;;;5.00;4.33;;;;;;;;;;4999289;28;20412;-86
2022/06/17 02:06:51;;;;;;;7.83;4.60;;;;;;;;;;5003229;28;20404;-85
2022/06/17 02:09:18;;;;;;;8.63;5.40;;;;;;;;;;5002528;28;20795;-87
2022/06/17 02:11:44;;;;;;;4.37;3.97;;;;;;;;;;4985251;28;20976;-87
2022/06/17 02:14:10;;;;;;;9.23;4.27;;;;;;;;;;5002380;28;20456;-88
2022/06/17 02:16:41;;;;;;;6.50;4.50;;;;;;;;;;5003311;28;20760;-86
2022/06/17 02:19:07;;;;;;;7.00;4.30;;;;;;;;;;4988300;28;20412;-85
2022/06/17 02:21:41;;;;;;;7.90;5.00;;;;;;;;;;5006060;28;20909;-85
2022/06/17 02:24:07;;;;;;;6.90;4.60;;;;;;;;;;4988596;28;20388;-86
2022/06/17 02:26:34;;;;;;;11.03;5.27;;;;;;;;;;4990153;28;20420;-87
2022/06/17 02:29:02;;;;;;;7.60;5.47;;;;;;;;;;5007902;28;20439;-86
2022/06/17 02:31:28;;;;;;;7.53;5.73;;;;;;;;;;4990212;28;20451;-87
2022/06/17 02:33:55;;;;;;;6.00;4.43;;;;;;;;;;5007993;28;20534;-87
2022/06/17 02:36:26;;;;;;;5.53;4.67;;;;;;;;;;4990577;28;20515;-87
2022/06/17 02:38:52;;;;;;;6.50;4.60;;;;;;;;;;5006535;28;20388;-86
2022/06/17 02:41:19;;;;;;;6.00;4.53;;;;;;;;;;5006488;28;20404;-87
2022/06/17 02:43:47;;;;;;;6.27;5.33;;;;;;;;;;5007266;28;20404;-86
2022/06/17 02:46:21;;;;;;;8.17;5.07;;;;;;;;;;5007002;28;20436;-88
2022/06/17 02:48:58;;;;;;;6.10;4.20;;;;;;;;;;4989728;28;20405;-87
2022/06/17 02:51:24;;;;;;;7.70;5.07;;;;;;;;;;4985236;28;20800;-88
2022/06/17 02:53:51;;;;;;;6.20;5.00;;;;;;;;;;5007131;28;20456;-87
2022/06/17 02:56:20;;;;;;;8.10;5.00;;;;;;;;;;5007282;28;20554;-87
2022/06/17 02:58:55;;;;;;;7.17;4.73;;;;;;;;;;5007967;28;20435;-86
2022/06/17 03:01:26;;;;;;;5.57;4.67;;;;;;;;;;5007788;28;20427;-87
2022/06/17 03:03:54;;;;;;;8.30;4.70;;;;;;;;;;5009088;28;20410;-87
2022/06/17 03:06:25;;;;;;;6.50;5.17;;;;;;;;;;4994531;28;20423;-86
2022/06/17 03:08:51;;;;;;;6.57;5.40;;;;;;;;;;4992699;28;20412;-87
2022/06/17 03:11:18;;;;;;;6.07;5.13;;;;;;;;;;5006340;28;20769;-87
2022/06/17 03:13:51;;;;;;;6.70;5.33;;;;;;;;;;4998520;28;21051;-86
2022/06/17 03:16:17;;;;;;;5.10;4.40;;;;;;;;;;5000504;28;20404;-90
2022/06/17 03:18:45;;;;;;;6.90;4.73;;;;;;;;;;4999143;28;20431;-89
2022/06/17 03:21:11;;;;;;;6.90;5.63;;;;;;;;;;5000291;28;20427;-85
2022/06/17 03:23:42;;;;;;;5.90;5.30;;;;;;;;;;5000385;28;20420;-86
2022/06/17 03:26:13;;;;;;;7.40;4.70;;;;;;;;;;5016206;28;20408;-86
2022/06/17 03:28:41;;;;;;;10.30;5.67;;;;;;;;;;5013314;28;20431;-88
2022/06/17 03:31:18;;;;;;;6.70;5.13;;;;;;;;;;5002916;28;21011;-87
2022/06/17 03:33:47;;;;;;;7.73;5.40;;;;;;;;;;5029747;23;20537;-82
2022/06/17 03:36:34;;;;;;;8.73;6.10;;;;;;;;;;5020106;28;20407;-83
2022/06/17 03:39:02;;;;;;;5.10;4.60;;;;;;;;;;5019383;28;20406;-82
2022/06/17 03:41:37;;;;;;;7.60;5.30;;;;;;;;;;5019759;28;20403;-82
2022/06/17 03:44:04;;;;;;;7.53;5.27;;;;;;;;;;5019700;28;20414;-83
2022/06/17 03:46:33;;;;;;;7.43;4.80;;;;;;;;;;5019886;28;20829;-82
2022/06/17 03:49:11;;;;;;;6.80;5.33;;;;;;;;;;5020412;28;20400;-82
2022/06/17 03:51:38;;;;;;;9.70;4.90;;;;;;;;;;5019650;28;20408;-82
2022/06/17 03:54:04;;;;;;;6.63;5.53;;;;;;;;;;5020294;28;20466;-82
2022/06/17 03:56:36;;;;;;;6.60;5.90;;;;;;;;;;5019860;28;20764;-83
2022/06/17 03:59:07;;;;;;;9.37;5.83;;;;;;;;;;5020617;28;20800;-82
2022/06/17 04:01:37;;;;;;;8.40;5.30;;;;;;;;;;5020384;28;20394;-82
2022/06/17 04:04:05;;;;;;;11.80;6.10;;;;;;;;;;5021000;28;20411;-82
2022/06/17 04:06:35;;;;;;;7.10;4.77;;;;;;;;;;5022829;28;20406;-82
2022/06/17 04:09:01;;;;;;;8.17;5.57;;;;;;;;;;5020514;28;20408;-82
2022/06/17 04:11:28;;;;;;;7.40;5.37;;;;;;;;;;5020458;28;20430;-83
2022/06/17 04:13:56;;;;;;;7.23;4.40;;;;;;;;;;5002705;28;20822;-83
2022/06/17 04:16:31;;;;;;;6.37;5.23;;;;;;;;;;5020117;28;20431;-82
2022/06/17 04:19:12;;;;;;;6.23;4.33;;;;;;;;;;5020060;28;20410;-82
2022/06/17 04:21:38;;;;;;;6.30;5.00;;;;;;;;;;5002602;28;20980;-82
2022/06/17 04:24:06;;;;;;;7.80;5.40;;;;;;;;;;5019803;28;20469;-82
2022/06/17 04:26:33;;;;;;;10.10;5.40;;;;;;;;;;5022858;28;20422;-82
2022/06/17 04:29:03;;;;;;;6.50;4.83;;;;;;;;;;5033195;28;20408;-81
2022/06/17 04:31:30;;;;;;;10.23;5.60;;;;;;;;;;5034805;28;20482;-82
2022/06/17 04:33:59;;;;;;;7.30;4.47;;;;;;;;;;5034788;28;20507;-81
2022/06/17 04:36:29;;;;;;;6.00;5.40;;;;;;;;;;5018093;28;20399;-81
2022/06/17 04:38:55;;;;;;;7.07;5.77;;;;;;;;;;5034370;28;20380;-81
2022/06/17 04:41:23;;;;;;;7.17;4.90;;;;;;;;;;5034554;28;20415;-82
2022/06/17 04:43:51;;;;;;;5.83;4.90;;;;;;;;;;5035557;28;20430;-82
2022/06/17 04:46:28;;;;;;;7.30;5.17;;;;;;;;;;5035272;28;20383;-81
2022/06/17 04:48:57;;;;;;;6.20;4.53;;;;;;;;;;5035254;28;20475;-81
2022/06/17 04:51:24;;;;;;;5.03;4.50;;;;;;;;;;5018067;28;20474;-81
2022/06/17 04:53:50;;;;;;;6.00;3.97;;;;;;;;;;5034316;28;20458;-82
2022/06/17 04:56:49;;;;;;;6.90;4.60;;;;;;;;;;5034616;28;20411;-80
2022/06/17 04:59:26;;;;;;;8.13;5.27;;;;;;;;;;4991778;28;20483;-81
2022/06/17 05:01:53;;;;;;;5.17;4.67;;;;;;;;;;5033847;28;20391;-81
2022/06/17 05:04:19;;;;;;;10.53;5.60;;;;;;;;;;5034054;28;20427;-81
2022/06/17 05:06:45;;;;;;;7.83;5.23;;;;;;;;;;5031876;28;20427;-82
2022/06/17 05:09:17;;;;;;;7.80;4.83;;;;;;;;;;5025108;28;20518;-82
2022/06/17 05:11:46;;;;;;;5.83;4.67;;;;;;;;;;5027373;28;20415;-82
2022/06/17 05:14:25;;;;;;;5.00;4.50;;;;;;;;;;5017088;28;20459;-82
2022/06/17 05:16:51;;;;;;;5.20;4.23;;;;;;;;;;5034168;28;20422;-81
2022/06/17 05:19:20;;;;;;;4.97;4.47;;;;;;;;;;5029800;28;20430;-81
2022/06/17 05:21:46;;;;;;;5.10;4.23;;;;;;;;;;5034540;28;20780;-83
2022/06/17 05:24:12;;;;;;;6.80;4.40;;;;;;;;;;5036697;28;20411;-83
2022/06/17 05:26:38;;;;;;;5.90;4.33;;;;;;;;;;5037146;28;20396;-82
2022/06/17 05:29:07;;;;;;;6.03;4.40;;;;;;;;;;5036219;28;20399;-81
2022/06/17 05:31:33;;;;;;;5.27;4.20;;;;;;;;;;5035551;28;20482;-82
2022/06/17 05:33:59;;;;;;;5.80;4.57;;;;;;;;;;5036494;28;20497;-84
2022/06/17 05:36:25;;;;;;;7.00;4.33;;;;;;;;;;5027267;28;20424;-81
2022/06/17 05:38:51;;;;;;;5.43;4.80;;;;;;;;;;5032724;28;20498;-81
2022/06/17 05:41:19;;;;;;;4.90;3.97;;;;;;;;;;5033917;28;20438;-82
2022/06/17 05:43:45;;;;;;;5.97;4.80;;;;;;;;;;5027052;28;20436;-81
2022/06/17 05:46:11;;;;;;;6.73;4.60;;;;;;;;;;5031845;28;20415;-82
2022/06/17 05:48:37;;;;;;;5.97;3.90;;;;;;;;;;5033871;28;20470;-82
2022/06/17 05:51:03;;;;;;;5.30;4.47;;;;;;;;;;5033479;28;20425;-82
2022/06/17 05:53:29;;;;;;;6.30;4.20;;;;;;;;;;5037953;28;20466;-82
2022/06/17 05:55:56;;;;;;;5.60;4.43;;;;;;;;;;5037543;28;20950;-82
2022/06/17 05:58:23;;;;;;;8.37;4.40;;;;;;;;;;5036813;28;20418;-82
2022/06/17 06:00:49;;;;;;;11.50;6.67;;;;;;;;;;5020711;28;20430;-82
2022/06/17 06:03:19;;;;;;;6.10;4.27;;;;;;;;;;5037273;28;20443;-82
2022/06/17 06:05:45;;;;;;;4.87;4.37;;;;;;;;;;5035000;28;20443;-80
2022/06/17 06:08:11;;;;;;;10.33;4.43;;;;;;;;;;5033335;28;20820;-82
2022/06/17 06:10:37;;;;;;;7.43;3.90;;;;;;;;;;5037364;28;20430;-82
2022/06/17 06:13:04;;;;;;;4.40;4.00;;;;;;;;;;5036908;28;20455;-82
2022/06/17 06:15:33;;;;;;;5.10;4.60;;;;;;;;;;5037474;28;20453;-82
2022/06/17 06:17:59;;;;;;;5.57;3.77;;;;;;;;;;5036701;28;20423;-81
2022/06/17 06:20:26;;;;;;;8.43;4.37;;;;;;;;;;5036029;28;20408;-81
2022/06/17 06:22:52;;;;;;;4.40;3.80;;;;;;;;;;5021208;28;20523;-82
2022/06/17 06:25:18;;;;;;;6.97;4.20;;;;;;;;;;5036703;28;20396;-82
2022/06/17 06:27:45;;;;;;;4.53;4.00;;;;;;;;;;5021514;28;20407;-81
2022/06/17 06:30:31;;;;;;;4.80;3.97;;;;;;;;;;5018123;28;20545;-83
2022/06/17 06:33:01;;;;;;;7.43;4.30;;;;;;;;;;5032371;28;20471;-83
2022/06/17 06:35:32;;;;;;;5.50;3.70;;;;;;;;;;5029084;28;20426;-82
2022/06/17 06:37:59;;;;;;;6.27;4.47;;;;;;;;;;5019910;28;20502;-83
2022/06/17 06:40:26;;;;;;;5.10;4.10;;;;;;;;;;5029222;28;20491;-83
2022/06/17 06:42:53;;;;;;;7.80;4.17;;;;;;;;;;5037672;28;20443;-82
2022/06/17 06:45:30;;;;;;;6.30;3.67;;;;;;;;;;5032284;28;20434;-82
2022/06/17 06:47:58;;;;;;;7.13;4.00;;;;;;;;;;5034814;28;20411;-79
2022/06/17 06:50:25;;;;;;;6.33;3.77;;;;;;;;;;5031800;28;20457;-80
2022/06/17 06:52:51;;;;;;;7.20;4.03;;;;;;;;;;5036722;28;20459;-80
2022/06/17 06:55:18;;;;;;;4.90;4.40;;;;;;;;;;5036232;28;20430;-80
2022/06/17 06:57:49;;;;;;;6.50;4.23;;;;;;;;;;5036583;28;20414;-81
2022/06/17 07:00:19;;;;;;;7.47;3.83;;;;;;;;;;5036974;28;20439;-82
2022/06/17 07:02:45;;;;;;;6.07;4.47;;;;;;;;;;5035506;28;20434;-82
2022/06/17 07:05:12;;;;;;;5.77;3.93;;;;;;;;;;5034009;28;20499;-81
2022/06/17 07:07:39;;;;;;;5.80;4.60;;;;;;;;;;5038027;28;20412;-82
2022/06/17 07:10:05;;;;;;;7.47;4.47;;;;;;;;;;5036327;28;20423;-82
2022/06/17 07:12:31;;;;;;;8.50;4.87;;;;;;;;;;5016563;28;20427;-82
2022/06/17 07:14:57;;;;;;;12.50;4.60;;;;;;;;;;5018314;28;20419;-81
2022/06/17 07:17:23;;;;;;;7.60;5.30;;;;;;;;;;5032986;28;20426;-82
2022/06/17 07:19:49;;;;;;;11.07;4.13;;;;;;;;;;5027906;28;20404;-82
2022/06/17 07:22:15;;;;;;;4.97;4.33;;;;;;;;;;5028855;28;20430;-81
2022/06/17 07:24:44;;;;;;;7.00;3.73;;;;;;;;;;5034375;28;20412;-81
2022/06/17 07:27:11;;;;;;;6.33;4.20;;;;;;;;;;5037956;28;20404;-81
2022/06/17 07:29:37;;;;;;;9.50;4.43;;;;;;;;;;5036474;28;20407;-82
2022/06/17 07:32:03;;;;;;;5.80;3.83;;;;;;;;;;5021691;28;20438;-82
2022/06/17 07:34:29;;;;;;;5.93;4.40;;;;;;;;;;5039556;28;20471;-81
2022/06/17 07:39:55;;;;;;;9.13;4.70;;;;;;;;;;5036197;28;20406;-82
2022/06/17 07:42:22;;;;;;;10.20;4.43;;;;;;;;;;5037349;28;20443;-82
2022/06/17 07:44:48;;;;;;;5.73;3.73;;;;;;;;;;5038437;28;20395;-82
2022/06/17 07:47:18;;;;;;;6.53;4.33;;;;;;;;;;5037593;28;20499;-82
2022/06/17 07:49:44;;;;;;;5.10;3.53;;;;;;;;;;5020824;28;20407;-82
2022/06/17 07:52:10;;;;;;;5.57;4.40;;;;;;;;;;5036204;28;20434;-82
2022/06/17 07:54:37;;;;;;;7.70;4.70;;;;;;;;;;5035465;28;20459;-83
2022/06/17 07:57:03;;;;;;;5.50;3.73;;;;;;;;;;5019556;28;20414;-82
2022/06/17 07:59:29;;;;;;;5.47;3.90;;;;;;;;;;5036630;28;20415;-82
2022/06/17 08:01:55;;;;;;;8.50;4.70;;;;;;;;;;5036792;28;20392;-82
2022/06/17 08:04:21;;;;;;;8.73;4.20;;;;;;;;;;5035664;28;20422;-82
2022/06/17 08:06:49;;;;;;;4.27;3.63;;;;;;;;;;5036210;28;20407;-82
2022/06/17 08:09:19;;;;;;;4.57;3.83;;;;;;;;;;5036409;28;20431;-82
2022/06/17 08:11:45;;;;;;;4.43;3.80;;;;;;;;;;5036015;28;20435;-82
2022/06/17 08:14:12;;;;;;;5.50;3.80;;;;;;;;;;5034772;28;20467;-81
2022/06/17 08:16:38;;;;;;;7.30;4.53;;;;;;;;;;5019405;28;20851;-82
2022/06/17 08:19:04;;;;;;;6.40;3.60;;;;;;;;;;5002655;28;20404;-81
2022/06/17 08:21:30;;;;;;;5.60;3.97;;;;;;;;;;5036256;28;20414;-82
2022/06/17 08:23:57;;;;;;;6.33;4.20;;;;;;;;;;5018771;28;20454;-82
2022/06/17 08:26:23;;;;;;;4.40;3.67;;;;;;;;;;5036619;28;20789;-82
2022/06/17 08:28:49;;;;;;;8.07;4.00;;;;;;;;;;5035307;28;20876;-83
2022/06/17 08:31:17;;;;;;;7.07;4.00;;;;;;;;;;5035317;28;20421;-84
2022/06/17 08:33:43;;;;;;;7.63;4.27;;;;;;;;;;5035039;28;20461;-82
2022/06/17 08:36:11;;;;;;;6.30;3.67;;;;;;;;;;5028756;28;20498;-82
2022/06/17 08:38:39;;;;;;;5.83;4.20;;;;;;;;;;5034667;28;20424;-83
2022/06/17 08:41:14;;;;;;;6.67;3.87;;;;;;;;;;5034722;28;20419;-83
2022/06/17 08:43:59;;;;;;;5.80;4.00;;;;;;;;;;5017215;28;20526;-81
2022/06/17 08:46:31;;;;;;;4.27;3.00;;;;;;;;;;5018242;28;20423;-82
2022/06/17 08:49:08;;;;;;;5.10;3.27;;;;;;;;;;5035649;28;20399;-81
2022/06/17 08:51:53;;;;;;;4.97;3.50;;;;;;;;;;5006303;28;20430;-82
2022/06/17 08:54:22;;;;;;;5.30;4.03;;;;;;;;;;5035823;28;20481;-82
2022/06/17 08:56:54;;;;;;;5.37;3.67;;;;;;;;;;5022769;28;20552;-83
2022/06/17 08:59:23;;;;;;;6.07;3.67;;;;;;;;;;5028593;28;20756;-81
2022/06/17 09:02:13;;;;;;;7.17;3.60;;;;;;;;;;5033992;28;20443;-81
2022/06/17 09:04:39;;;;;;;5.10;3.40;;;;;;;;;;4997025;28;20447;-81
2022/06/17 09:07:22;;;;;;;4.90;3.50;;;;;;;;;;5033652;28;20415;-81
2022/06/17 09:09:48;;;;;;;3.90;3.33;;;;;;;;;;5032757;28;20397;-81
2022/06/17 09:12:33;;;;;;;5.00;3.30;;;;;;;;;;5034114;28;20811;-80
2022/06/17 09:15:08;;;;;;;4.90;3.63;;;;;;;;;;5033576;28;20414;-81
2022/06/17 09:17:40;;;;;;;6.53;3.57;;;;;;;;;;5033678;28;20445;-80
2022/06/17 09:20:07;;;;;;;3.80;3.17;;;;;;;;;;5033732;28;20407;-81
2022/06/17 09:22:43;;;;;;;5.20;4.20;;;;;;;;;;5029223;28;20447;-82
2022/06/17 09:25:10;;;;;;;5.20;2.50;;;;;;;;;;5003432;28;20458;-81
2022/06/17 09:27:38;;;;;;;3.37;2.60;;;;;;;;;;5024511;28;20399;-82
2022/06/17 09:30:11;;;;;;;4.60;3.10;;;;;;;;;;5025880;28;20399;-82
2022/06/17 09:35:22;;;;;;;3.50;2.60;;;;;;;;;;5026910;23;20554;-85
2022/06/17 09:38:07;;;;;;;6.77;3.00;;;;;;;;;;5001639;28;20404;-83
2022/06/17 09:40:39;;;;;;;16.13;3.67;;;;;;;;;;4999816;28;20454;-84
2022/06/17 09:43:09;;;;;;;4.50;3.07;;;;;;;;;;5020621;28;20442;-86
2022/06/17 09:45:37;;;;;;;6.93;2.97;;;;;;;;;;5020938;28;20774;-83
2022/06/17 09:48:17;;;;;;;4.93;3.47;;;;;;;;;;5021066;28;20423;-84
2022/06/17 09:50:49;;;;;;;6.40;3.80;;;;;;;;;;5020685;28;20850;-84
2022/06/17 09:53:15;;;;;;;5.37;3.40;;;;;;;;;;5016229;28;20478;-83
2022/06/17 09:55:49;;;;;;;7.47;3.20;;;;;;;;;;5020571;28;20415;-83
2022/06/17 09:58:25;;;;;;;4.40;3.20;;;;;;;;;;5009424;28;20458;-82
2022/06/17 10:00:53;;;;;;;3.83;3.40;;;;;;;;;;5024041;28;20418;-85
2022/06/17 10:03:24;;;;;;;5.43;3.60;;;;;;;;;;5021240;28;20454;-86
2022/06/17 10:05:52;;;;;;;6.37;3.10;;;;;;;;;;5020666;28;20384;-86
2022/06/17 10:08:41;;;;;;;5.47;3.63;;;;;;;;;;5002931;28;20413;-86
2022/06/17 10:11:13;;;;;;;3.20;2.40;;;;;;;;;;5020726;28;20419;-86
2022/06/17 10:13:43;;;;;;;5.17;3.00;;;;;;;;;;5021921;28;20474;-86
2022/06/17 10:19:12;;;;;;;5.70;3.20;;;;;;;;;;5021824;28;20406;-84
2022/06/17 10:21:46;;;;;;;10.47;3.60;;;;;;;;;;5030301;28;20396;-86
2022/06/17 10:24:18;;;;;;;3.87;3.03;;;;;;;;;;5023486;28;20423;-86
2022/06/17 10:26:44;;;;;;;4.03;2.90;;;;;;;;;;5022138;28;20494;-85
2022/06/17 10:29:13;;;;;;;4.83;2.60;;;;;;;;;;5003847;28;20497;-86
2022/06/17 10:31:44;;;;;;;4.17;2.70;;;;;;;;;;5021083;28;20406;-86
2022/06/17 10:34:11;;;;;;;4.97;3.17;;;;;;;;;;5020916;28;20467;-86
2022/06/17 10:36:37;;;;;;;5.57;3.23;;;;;;;;;;5020601;28;20403;-86
2022/06/17 10:39:03;;;;;;;4.20;2.80;;;;;;;;;;5002880;28;20892;-86
2022/06/17 10:41:31;;;;;;;3.90;3.00;;;;;;;;;;5003048;28;20408;-86
2022/06/17 10:43:57;;;;;;;3.90;2.90;;;;;;;;;;5020755;28;20522;-86
2022/06/17 10:46:24;;;;;;;4.00;2.60;;;;;;;;;;5020814;28;20915;-86
2022/06/17 10:48:57;;;;;;;2.63;2.40;;;;;;;;;;5026482;28;20407;-86
2022/06/17 10:51:23;;;;;;;5.07;2.70;;;;;;;;;;5020277;28;20486;-86
2022/06/17 10:53:54;;;;;;;7.83;2.50;;;;;;;;;;5020059;28;21020;-85
2022/06/17 10:56:30;;;;;;;3.50;2.33;;;;;;;;;;5019451;28;20911;-84
2022/06/17 10:59:01;;;;;;;5.10;2.80;;;;;;;;;;5019465;28;20501;-84
2022/06/17 11:01:45;;;;;;;5.23;2.43;;;;;;;;;;5001570;28;20462;-84
2022/06/17 11:04:32;;;;;;;7.03;2.83;;;;;;;;;;5020108;28;20435;-85
2022/06/17 11:07:06;;;;;;;4.60;2.50;;;;;;;;;;5019567;28;20407;-84
2022/06/17 11:09:38;;;;;;;3.30;2.80;;;;;;;;;;5019867;28;20474;-83
2022/06/17 11:12:06;;;;;;;5.63;2.97;;;;;;;;;;5019933;28;20392;-83
2022/06/17 11:14:40;;;;;;;3.87;2.07;;;;;;;;;;5018914;28;20473;-86
2022/06/17 11:17:26;;;;;;;4.90;2.40;;;;;;;;;;5020055;28;20908;-86
2022/06/17 11:19:55;;;;;;;3.57;2.50;;;;;;;;;;5019776;28;20411;-85
2022/06/17 11:22:38;;;;;;;3.17;2.40;;;;;;;;;;5020636;28;20411;-85
2022/06/17 11:25:22;;;;;;;2.70;2.13;;;;;;;;;;5020181;28;20966;-86
2022/06/17 11:27:57;;;;;;;4.53;2.47;;;;;;;;;;5020930;28;20471;-85
2022/06/17 11:30:23;;;;;;;3.50;2.40;;;;;;;;;;5024988;28;20396;-86
2022/06/17 11:32:49;;;;;;;2.93;2.27;;;;;;;;;;5025696;28;20423;-84
2022/06/17 11:35:18;;;;;;;3.50;2.70;;;;;;;;;;5037475;28;20421;-84
2022/06/17 11:37:46;;;;;;;10.10;3.07;;;;;;;;;;4998830;28;20430;-83
2022/06/17 11:40:16;;;;;;;4.47;2.60;;;;;;;;;;5014990;28;20418;-82
2022/06/17 11:42:54;;;;;;;4.83;2.60;;;;;;;;;;5016198;28;20427;-81
2022/06/17 11:45:23;;;;;;;8.10;2.80;;;;;;;;;;4999536;28;20415;-82
2022/06/17 11:47:52;;;;;;;3.67;3.00;;;;;;;;;;5016935;28;20420;-81
2022/06/17 11:50:27;;;;;;;5.80;2.23;;;;;;;;;;5016149;28;20938;-83
2022/06/17 11:52:59;;;;;;;6.83;2.40;;;;;;;;;;5017158;28;20451;-83
2022/06/17 11:55:30;;;;;;;5.60;2.87;;;;;;;;;;5022062;28;20451;-85
2022/06/17 11:57:56;;;;;;;5.07;1.97;;;;;;;;;;5001396;28;20434;-85
2022/06/17 12:00:24;;;;;;;5.10;2.50;;;;;;;;;;5018406;28;20419;-85
2022/06/17 12:02:58;;;;;;;6.90;3.07;;;;;;;;;;5018275;28;20438;-85
2022/06/17 12:05:29;;;;;;;2.70;2.47;;;;;;;;;;5017975;28;20419;-82
2022/06/17 12:08:13;;;;;;;4.07;3.30;;;;;;;;;;5016971;28;20501;-84
2022/06/17 12:10:40;;;;;;;3.47;2.40;;;;;;;;;;5017517;28;20467;-83
2022/06/17 12:13:13;;;;;;;3.90;2.23;;;;;;;;;;5016330;28;20534;-83
2022/06/17 12:15:42;;;;;;;4.93;1.90;;;;;;;;;;5016924;28;20384;-83
2022/06/17 12:18:12;;;;;;;4.30;2.20;;;;;;;;;;5016651;28;20426;-83
2022/06/17 12:20:46;;;;;;;6.20;2.03;;;;;;;;;;5016815;28;20736;-84
2022/06/17 12:23:18;;;;;;;2.90;2.00;;;;;;;;;;5016738;28;20434;-83
2022/06/17 12:25:47;;;;;;;2.83;2.13;;;;;;;;;;5017411;28;20412;-83
2022/06/17 12:28:32;;;;;;;4.97;1.87;;;;;;;;;;5016380;28;20987;-83
2022/06/17 12:31:04;;;;;;;3.10;1.93;;;;;;;;;;5017860;28;20403;-83
2022/06/17 12:33:36;;;;;;;4.40;2.00;;;;;;;;;;5017465;28;20490;-83
2022/06/17 12:36:10;;;;;;;7.67;2.30;;;;;;;;;;5018118;28;20418;-84
2022/06/17 12:38:55;;;;;;;4.93;2.40;;;;;;;;;;4998939;28;20797;-84
2022/06/17 12:41:43;;;;;;;2.93;2.10;;;;;;;;;;5014147;28;20443;-83
2022/06/17 12:44:12;;;;;;;9.47;2.83;;;;;;;;;;5016502;28;20423;-83
2022/06/17 12:46:47;;;;;;;3.60;2.17;;;;;;;;;;5016359;28;20418;-85
2022/06/17 12:55:06;;;;;;;5.03;1.70;;;;;;;;;;5016874;28;20430;-82
2022/06/17 12:58:02;;;;;;;3.97;1.87;;;;;;;;;;5016218;28;20787;-83
2022/06/17 13:00:34;;;;;;;2.57;2.10;;;;;;;;;;5000109;28;20473;-84
2022/06/17 13:03:00;;;;;;;5.77;2.20;;;;;;;;;;5016934;28;20426;-83
2022/06/17 13:05:28;;;;;;;4.60;2.33;;;;;;;;;;5016556;28;20795;-84
2022/06/17 13:08:29;;;;;;;6.97;2.70;;;;;;;;;;5016426;28;20432;-83
2022/06/17 13:11:01;;;;;;;2.43;2.17;;;;;;;;;;4918158;29;20422;-83
2022/06/17 13:13:36;;;;;;;2.37;1.77;;;;;;;;;;5000624;28;20831;-85
2022/06/17 13:16:12;;;;;;;5.00;2.60;;;;;;;;;;4999408;28;20403;-85
2022/06/17 13:18:44;;;;;;;3.30;2.50;;;;;;;;;;5018840;28;20411;-83
2022/06/17 13:21:16;;;;;;;4.67;2.27;;;;;;;;;;5021155;28;20428;-86
2022/06/17 13:24:01;;;;;;;5.67;2.13;;;;;;;;;;5004720;28;20436;-85
2022/06/17 13:26:35;;;;;;;7.10;3.00;;;;;;;;;;5026059;28;20403;-85
2022/06/17 13:29:14;;;;;;;4.97;2.50;;;;;;;;;;5028847;28;20407;-84
2022/06/17 13:32:02;;;;;;;3.93;2.53;;;;;;;;;;5034085;28;20415;-84
2022/06/17 13:34:37;;;;;;;3.63;2.20;;;;;;;;;;5033448;28;20462;-85
2022/06/17 13:37:21;;;;;;;5.13;2.07;;;;;;;;;;5024155;28;20414;-86
2022/06/17 13:39:59;;;;;;;2.70;1.93;;;;;;;;;;5020313;28;20419;-86
2022/06/17 13:42:26;;;;;;;2.40;1.70;;;;;;;;;;5017955;28;20412;-87
2022/06/17 13:45:01;;;;;;;2.43;2.00;;;;;;;;;;5018309;28;20424;-87
2022/06/17 13:47:27;;;;;;;3.30;1.70;;;;;;;;;;5022387;28;20415;-85
2022/06/17 13:49:58;;;;;;;8.57;3.00;;;;;;;;;;5034848;28;20415;-84
2022/06/17 13:52:43;;;;;;;3.80;1.43;;;;;;;;;;5020213;28;20409;-87
2022/06/17 13:55:20;;;;;;;4.73;1.87;;;;;;;;;;5021559;28;20462;-87
2022/06/17 13:57:49;;;;;;;3.70;1.83;;;;;;;;;;5028933;28;20418;-86
2022/06/17 14:00:22;;;;;;;2.57;1.80;;;;;;;;;;5003511;28;20422;-87
2022/06/17 14:02:51;;;;;;;2.67;1.83;;;;;;;;;;5022860;28;20502;-87
2022/06/17 14:05:28;;;;;;;3.00;2.00;;;;;;;;;;5021284;28;20410;-87
2022/06/17 14:08:00;;;;;;;3.63;2.10;;;;;;;;;;5021355;28;20419;-86
2022/06/17 14:10:26;;;;;;;3.20;2.40;;;;;;;;;;5025682;28;20412;-86
2022/06/17 14:12:52;;;;;;;3.50;2.30;;;;;;;;;;5015268;28;20470;-87
2022/06/17 14:15:23;;;;;;;2.83;2.07;;;;;;;;;;5036642;28;20423;-85
2022/06/17 14:17:55;;;;;;;4.17;2.33;;;;;;;;;;5022618;28;20407;-85
2022/06/17 14:20:39;;;;;;;6.03;2.20;;;;;;;;;;5023204;28;20398;-87
2022/06/17 14:23:16;;;;;;;2.73;1.93;;;;;;;;;;5021546;28;20779;-85
2022/06/17 14:25:45;;;;;;;4.40;2.13;;;;;;;;;;5003754;28;20823;-87
2022/06/17 14:28:29;;;;;;;4.27;2.30;;;;;;;;;;5022194;28;22630;-86
2022/06/17 14:31:11;;;;;;;3.03;2.03;;;;;;;;;;5020772;28;21021;-86
2022/06/17 14:33:40;;;;;;;3.80;2.10;;;;;;;;;;5014999;28;20470;-87
2022/06/17 14:36:08;;;;;;;3.13;1.77;;;;;;;;;;5019715;28;20416;-87
2022/06/17 14:38:40;;;;;;;5.30;1.90;;;;;;;;;;5021100;28;20442;-86
2022/06/17 14:43:56;;;;;;;5.73;1.97;;;;;;;;;;5021830;28;20446;-83
2022/06/17 14:46:22;;;;;;;4.73;2.10;;;;;;;;;;5019233;28;20514;-85
2022/06/17 14:48:50;;;;;;;2.90;2.20;;;;;;;;;;5018244;28;20493;-84
2022/06/17 14:51:15;;;;;;;6.03;2.30;;;;;;;;;;5021701;28;20438;-83
2022/06/17 14:53:49;;;;;;;4.17;2.30;;;;;;;;;;5020652;28;20955;-84
2022/06/17 14:56:15;;;;;;;2.40;1.60;;;;;;;;;;5021150;28;20487;-82
2022/06/17 14:58:46;;;;;;;2.90;1.90;;;;;;;;;;5021360;28;20481;-82
2022/06/17 15:01:22;;;;;;;3.53;1.70;;;;;;;;;;5022375;28;20439;-82
2022/06/17 15:03:52;;;;;;;3.57;2.10;;;;;;;;;;5027901;28;20481;-85
2022/06/17 15:06:19;;;;;;;4.77;1.80;;;;;;;;;;5026133;28;20426;-85
2022/06/17 15:08:47;;;;;;;3.90;1.57;;;;;;;;;;5027322;28;20399;-84
2022/06/17 15:11:16;;;;;;;3.80;1.80;;;;;;;;;;5026142;28;20403;-84
2022/06/17 15:14:08;;;;;;;2.20;1.60;;;;;;;;;;5025808;28;20458;-84
2022/06/17 15:16:37;;;;;;;2.90;1.87;;;;;;;;;;5026314;28;20411;-84
2022/06/17 15:19:14;;;;;;;3.13;1.93;;;;;;;;;;5008965;28;20490;-84
2022/06/17 15:21:43;;;;;;;6.40;1.97;;;;;;;;;;5027289;28;20421;-84
2022/06/17 15:24:21;;;;;;;5.50;1.90;;;;;;;;;;5027438;28;20443;-83